sensor_id;sensor_type;location;lat;lon;timestamp;P1;durP1;ratioP1;P2;durP2;ratioP2
6739;SDS011;3407;49.882;10.920;2023-04-03T00:00:36;3.33;;;3.13;;
6739;SDS011;3407;49.882;10.920;2023-04-03T00:05:31;3.30;;;2.93;;
6739;SDS011;3407;49.882;10.920;2023-04-03T00:10:27;3.63;;;3.20;;
6739;SDS011;3407;49.882;10.920;2023-04-03T00:15:23;3.70;;;3.40;;
6739;SDS011;3407;49.882;10.920;2023-04-03T00:20:18;3.53;;;3.30;;
6739;SDS011;3407;49.882;10.920;2023-04-03T00:25:14;3.83;;;3.43;;
6739;SDS011;3407;49.882;10.920;2023-04-03T00:30:11;4.30;;;3.90;;
6739;SDS011;3407;49.882;10.920;2023-04-03T00:35:09;4.60;;;3.77;;
6739;SDS011;3407;49.882;10.920;2023-04-03T00:40:05;3.90;;;3.60;;
6739;SDS011;3407;49.882;10.920;2023-04-03T00:49:57;3.87;;;3.43;;
6739;SDS011;3407;49.882;10.920;2023-04-03T00:54:54;4.00;;;3.70;;
6739;SDS011;3407;49.882;10.920;2023-04-03T00:59:57;3.50;;;3.30;;
6739;SDS011;3407;49.882;10.920;2023-04-03T01:04:57;3.87;;;3.57;;
6739;SDS011;3407;49.882;10.920;2023-04-03T01:09:55;4.43;;;4.03;;
6739;SDS011;3407;49.882;10.920;2023-04-03T01:15:02;3.90;;;3.60;;
6739;SDS011;3407;49.882;10.920;2023-04-03T01:25:15;3.80;;;3.50;;
6739;SDS011;3407;49.882;10.920;2023-04-03T01:30:11;7.97;;;3.80;;
6739;SDS011;3407;49.882;10.920;2023-04-03T01:35:10;3.73;;;3.43;;
6739;SDS011;3407;49.882;10.920;2023-04-03T01:40:06;4.60;;;4.20;;
6739;SDS011;3407;49.882;10.920;2023-04-03T01:45:02;3.30;;;3.00;;
6739;SDS011;3407;49.882;10.920;2023-04-03T01:49:58;3.07;;;2.87;;
6739;SDS011;3407;49.882;10.920;2023-04-03T01:54:53;3.23;;;3.03;;
6739;SDS011;3407;49.882;10.920;2023-04-03T01:59:49;4.27;;;2.73;;
6739;SDS011;3407;49.882;10.920;2023-04-03T02:04:44;3.10;;;2.90;;
6739;SDS011;3407;49.882;10.920;2023-04-03T02:09:40;3.20;;;3.00;;
6739;SDS011;3407;49.882;10.920;2023-04-03T02:14:35;3.57;;;2.80;;
6739;SDS011;3407;49.882;10.920;2023-04-03T02:19:31;3.43;;;3.13;;
6739;SDS011;3407;49.882;10.920;2023-04-03T02:24:26;3.43;;;3.13;;
6739;SDS011;3407;49.882;10.920;2023-04-03T02:29:22;2.97;;;2.80;;
6739;SDS011;3407;49.882;10.920;2023-04-03T02:34:18;3.00;;;2.80;;
6739;SDS011;3407;49.882;10.920;2023-04-03T02:39:13;3.53;;;3.13;;
6739;SDS011;3407;49.882;10.920;2023-04-03T02:44:10;3.47;;;3.17;;
6739;SDS011;3407;49.882;10.920;2023-04-03T02:49:06;3.43;;;2.83;;
6739;SDS011;3407;49.882;10.920;2023-04-03T02:54:01;3.07;;;2.87;;
6739;SDS011;3407;49.882;10.920;2023-04-03T02:58:58;4.23;;;3.73;;
6739;SDS011;3407;49.882;10.920;2023-04-03T03:03:53;4.80;;;3.40;;
6739;SDS011;3407;49.882;10.920;2023-04-03T03:08:49;3.50;;;3.20;;
6739;SDS011;3407;49.882;10.920;2023-04-03T03:13:45;3.57;;;3.27;;
6739;SDS011;3407;49.882;10.920;2023-04-03T03:18:40;3.80;;;3.33;;
6739;SDS011;3407;49.882;10.920;2023-04-03T03:23:36;4.47;;;3.73;;
6739;SDS011;3407;49.882;10.920;2023-04-03T03:28:32;3.67;;;3.43;;
6739;SDS011;3407;49.882;10.920;2023-04-03T03:33:28;4.27;;;3.50;;
6739;SDS011;3407;49.882;10.920;2023-04-03T03:38:24;4.57;;;3.20;;
6739;SDS011;3407;49.882;10.920;2023-04-03T03:43:19;4.93;;;3.77;;
6739;SDS011;3407;49.882;10.920;2023-04-03T03:48:15;8.57;;;4.03;;
6739;SDS011;3407;49.882;10.920;2023-04-03T03:53:11;5.73;;;3.67;;
6739;SDS011;3407;49.882;10.920;2023-04-03T03:58:06;3.70;;;3.40;;
6739;SDS011;3407;49.882;10.920;2023-04-03T04:03:02;4.03;;;3.63;;
6739;SDS011;3407;49.882;10.920;2023-04-03T04:07:58;4.10;;;3.70;;
6739;SDS011;3407;49.882;10.920;2023-04-03T04:12:53;3.40;;;3.20;;
6739;SDS011;3407;49.882;10.920;2023-04-03T04:17:49;4.20;;;3.63;;
6739;SDS011;3407;49.882;10.920;2023-04-03T04:22:44;4.73;;;3.70;;
6739;SDS011;3407;49.882;10.920;2023-04-03T04:27:40;4.00;;;3.67;;
6739;SDS011;3407;49.882;10.920;2023-04-03T04:32:36;4.43;;;3.87;;
6739;SDS011;3407;49.882;10.920;2023-04-03T04:37:32;5.37;;;3.97;;
6739;SDS011;3407;49.882;10.920;2023-04-03T04:42:27;5.90;;;3.50;;
6739;SDS011;3407;49.882;10.920;2023-04-03T04:47:23;4.17;;;3.87;;
6739;SDS011;3407;49.882;10.920;2023-04-03T04:52:18;4.83;;;3.60;;
6739;SDS011;3407;49.882;10.920;2023-04-03T04:57:14;5.43;;;3.57;;
6739;SDS011;3407;49.882;10.920;2023-04-03T05:02:10;10.57;;;3.97;;
6739;SDS011;3407;49.882;10.920;2023-04-03T05:07:06;3.83;;;3.63;;
6739;SDS011;3407;49.882;10.920;2023-04-03T05:12:02;3.83;;;3.57;;
6739;SDS011;3407;49.882;10.920;2023-04-03T05:16:58;4.50;;;3.63;;
6739;SDS011;3407;49.882;10.920;2023-04-03T05:21:53;3.60;;;3.30;;
6739;SDS011;3407;49.882;10.920;2023-04-03T05:26:49;5.17;;;3.70;;
6739;SDS011;3407;49.882;10.920;2023-04-03T05:31:45;3.63;;;3.37;;
6739;SDS011;3407;49.882;10.920;2023-04-03T05:36:40;4.07;;;3.43;;
6739;SDS011;3407;49.882;10.920;2023-04-03T05:41:36;4.77;;;3.03;;
6739;SDS011;3407;49.882;10.920;2023-04-03T05:46:32;4.20;;;3.13;;
6739;SDS011;3407;49.882;10.920;2023-04-03T05:51:29;3.83;;;3.03;;
6739;SDS011;3407;49.882;10.920;2023-04-03T05:56:28;4.67;;;3.10;;
6739;SDS011;3407;49.882;10.920;2023-04-03T06:01:23;2.90;;;2.70;;
6739;SDS011;3407;49.882;10.920;2023-04-03T06:06:19;4.60;;;2.63;;
6739;SDS011;3407;49.882;10.920;2023-04-03T06:11:15;2.77;;;2.30;;
6739;SDS011;3407;49.882;10.920;2023-04-03T06:16:14;4.10;;;3.23;;
6739;SDS011;3407;49.882;10.920;2023-04-03T06:21:11;4.67;;;3.43;;
6739;SDS011;3407;49.882;10.920;2023-04-03T06:26:07;3.10;;;2.60;;
6739;SDS011;3407;49.882;10.920;2023-04-03T06:31:03;5.13;;;3.43;;
6739;SDS011;3407;49.882;10.920;2023-04-03T06:35:58;3.67;;;2.90;;
6739;SDS011;3407;49.882;10.920;2023-04-03T06:40:54;3.40;;;3.10;;
6739;SDS011;3407;49.882;10.920;2023-04-03T06:45:50;3.70;;;3.40;;
6739;SDS011;3407;49.882;10.920;2023-04-03T06:50:46;3.63;;;3.03;;
6739;SDS011;3407;49.882;10.920;2023-04-03T06:55:41;5.47;;;3.30;;
6739;SDS011;3407;49.882;10.920;2023-04-03T07:00:37;3.43;;;3.10;;
6739;SDS011;3407;49.882;10.920;2023-04-03T07:05:32;3.30;;;3.10;;
6739;SDS011;3407;49.882;10.920;2023-04-03T07:10:28;4.23;;;2.90;;
6739;SDS011;3407;49.882;10.920;2023-04-03T07:15:23;6.13;;;3.43;;
6739;SDS011;3407;49.882;10.920;2023-04-03T07:20:19;3.47;;;2.50;;
6739;SDS011;3407;49.882;10.920;2023-04-03T07:25:15;3.27;;;2.97;;
6739;SDS011;3407;49.882;10.920;2023-04-03T07:30:11;2.70;;;2.43;;
6739;SDS011;3407;49.882;10.920;2023-04-03T07:35:09;2.40;;;2.20;;
6739;SDS011;3407;49.882;10.920;2023-04-03T07:40:04;3.10;;;2.13;;
6739;SDS011;3407;49.882;10.920;2023-04-03T07:45:02;5.03;;;2.50;;
6739;SDS011;3407;49.882;10.920;2023-04-03T07:49:59;3.20;;;2.40;;
6739;SDS011;3407;49.882;10.920;2023-04-03T07:54:54;2.33;;;2.00;;
6739;SDS011;3407;49.882;10.920;2023-04-03T07:59:50;2.57;;;2.20;;
6739;SDS011;3407;49.882;10.920;2023-04-03T08:04:45;3.67;;;2.07;;
6739;SDS011;3407;49.882;10.920;2023-04-03T08:09:41;2.17;;;1.93;;
6739;SDS011;3407;49.882;10.920;2023-04-03T08:14:36;2.43;;;2.07;;
6739;SDS011;3407;49.882;10.920;2023-04-03T08:19:32;3.27;;;1.70;;
6739;SDS011;3407;49.882;10.920;2023-04-03T08:24:28;2.43;;;1.90;;
6739;SDS011;3407;49.882;10.920;2023-04-03T08:29:24;3.53;;;2.07;;
6739;SDS011;3407;49.882;10.920;2023-04-03T08:34:19;3.63;;;2.13;;
6739;SDS011;3407;49.882;10.920;2023-04-03T08:39:15;3.90;;;2.90;;
6739;SDS011;3407;49.882;10.920;2023-04-03T08:49:44;2.00;;;1.90;;
6739;SDS011;3407;49.882;10.920;2023-04-03T08:55:20;2.13;;;1.93;;
6739;SDS011;3407;49.882;10.920;2023-04-03T09:00:21;3.83;;;2.30;;
6739;SDS011;3407;49.882;10.920;2023-04-03T09:05:20;2.40;;;2.10;;
6739;SDS011;3407;49.882;10.920;2023-04-03T09:10:20;3.00;;;2.10;;
6739;SDS011;3407;49.882;10.920;2023-04-03T09:15:23;3.67;;;2.30;;
6739;SDS011;3407;49.882;10.920;2023-04-03T09:20:55;1.83;;;1.73;;
6739;SDS011;3407;49.882;10.920;2023-04-03T09:26:01;1.97;;;1.87;;
6739;SDS011;3407;49.882;10.920;2023-04-03T09:31:00;2.97;;;2.47;;
6739;SDS011;3407;49.882;10.920;2023-04-03T09:36:01;2.47;;;2.10;;
6739;SDS011;3407;49.882;10.920;2023-04-03T09:41:04;3.20;;;1.70;;
6739;SDS011;3407;49.882;10.920;2023-04-03T09:51:28;2.17;;;1.57;;
6739;SDS011;3407;49.882;10.920;2023-04-03T09:56:29;2.83;;;1.80;;
6739;SDS011;3407;49.882;10.920;2023-04-03T10:06:24;1.97;;;1.83;;
6739;SDS011;3407;49.882;10.920;2023-04-03T10:11:20;2.80;;;1.70;;
6739;SDS011;3407;49.882;10.920;2023-04-03T10:16:18;3.33;;;1.70;;
6739;SDS011;3407;49.882;10.920;2023-04-03T10:31:43;3.43;;;1.50;;
6739;SDS011;3407;49.882;10.920;2023-04-03T10:36:55;2.63;;;1.50;;
6739;SDS011;3407;49.882;10.920;2023-04-03T10:58:21;1.43;;;1.33;;
6739;SDS011;3407;49.882;10.920;2023-04-03T11:03:30;1.20;;;1.10;;
6739;SDS011;3407;49.882;10.920;2023-04-03T11:08:45;1.20;;;1.07;;
6739;SDS011;3407;49.882;10.920;2023-04-03T11:13:46;1.60;;;1.50;;
6739;SDS011;3407;49.882;10.920;2023-04-03T11:19:11;1.63;;;1.50;;
6739;SDS011;3407;49.882;10.920;2023-04-03T11:24:25;1.97;;;1.30;;
6739;SDS011;3407;49.882;10.920;2023-04-03T11:29:26;1.73;;;1.40;;
6739;SDS011;3407;49.882;10.920;2023-04-03T11:39:38;2.17;;;1.97;;
6739;SDS011;3407;49.882;10.920;2023-04-03T11:44:40;1.50;;;1.40;;
6739;SDS011;3407;49.882;10.920;2023-04-03T11:54:54;1.40;;;1.30;;
6739;SDS011;3407;49.882;10.920;2023-04-03T11:59:50;1.43;;;1.33;;
6739;SDS011;3407;49.882;10.920;2023-04-03T12:05:23;1.37;;;1.27;;
6739;SDS011;3407;49.882;10.920;2023-04-03T12:10:22;2.50;;;1.33;;
6739;SDS011;3407;49.882;10.920;2023-04-03T12:25:49;1.77;;;1.50;;
6739;SDS011;3407;49.882;10.920;2023-04-03T12:30:45;2.10;;;1.60;;
6739;SDS011;3407;49.882;10.920;2023-04-03T12:35:51;2.83;;;1.60;;
6739;SDS011;3407;49.882;10.920;2023-04-03T12:46:17;2.20;;;1.23;;
6739;SDS011;3407;49.882;10.920;2023-04-03T12:51:19;1.37;;;1.10;;
6739;SDS011;3407;49.882;10.920;2023-04-03T12:56:34;1.97;;;1.40;;
6739;SDS011;3407;49.882;10.920;2023-04-03T13:01:31;1.70;;;1.17;;
6739;SDS011;3407;49.882;10.920;2023-04-03T13:06:27;1.60;;;1.30;;
6739;SDS011;3407;49.882;10.920;2023-04-03T13:11:30;2.40;;;1.80;;
6739;SDS011;3407;49.882;10.920;2023-04-03T13:16:37;1.80;;;1.43;;
6739;SDS011;3407;49.882;10.920;2023-04-03T13:21:36;2.30;;;1.43;;
6739;SDS011;3407;49.882;10.920;2023-04-03T13:26:31;3.23;;;2.13;;
6739;SDS011;3407;49.882;10.920;2023-04-03T13:31:32;2.00;;;1.30;;
6739;SDS011;3407;49.882;10.920;2023-04-03T13:41:36;2.13;;;1.40;;
6739;SDS011;3407;49.882;10.920;2023-04-03T13:46:33;2.30;;;2.00;;
6739;SDS011;3407;49.882;10.920;2023-04-03T13:51:29;2.30;;;1.63;;
6739;SDS011;3407;49.882;10.920;2023-04-03T14:01:22;3.97;;;1.87;;
6739;SDS011;3407;49.882;10.920;2023-04-03T14:06:18;1.80;;;1.60;;
6739;SDS011;3407;49.882;10.920;2023-04-03T14:11:16;4.30;;;1.60;;
6739;SDS011;3407;49.882;10.920;2023-04-03T14:16:18;1.57;;;1.47;;
6739;SDS011;3407;49.882;10.920;2023-04-03T14:21:17;3.47;;;1.40;;
6739;SDS011;3407;49.882;10.920;2023-04-03T14:26:15;2.47;;;1.33;;
6739;SDS011;3407;49.882;10.920;2023-04-03T14:31:12;1.50;;;1.40;;
6739;SDS011;3407;49.882;10.920;2023-04-03T14:36:14;2.27;;;1.60;;
6739;SDS011;3407;49.882;10.920;2023-04-03T14:41:12;2.03;;;1.50;;
6739;SDS011;3407;49.882;10.920;2023-04-03T14:46:12;2.10;;;1.77;;
6739;SDS011;3407;49.882;10.920;2023-04-03T14:51:13;1.80;;;1.70;;
6739;SDS011;3407;49.882;10.920;2023-04-03T14:56:11;1.70;;;1.60;;
6739;SDS011;3407;49.882;10.920;2023-04-03T15:01:23;1.90;;;1.60;;
6739;SDS011;3407;49.882;10.920;2023-04-03T15:06:20;1.73;;;1.63;;
6739;SDS011;3407;49.882;10.920;2023-04-03T15:11:15;2.50;;;1.70;;
6739;SDS011;3407;49.882;10.920;2023-04-03T15:16:18;1.83;;;1.73;;
6739;SDS011;3407;49.882;10.920;2023-04-03T15:21:14;1.77;;;1.67;;
6739;SDS011;3407;49.882;10.920;2023-04-03T15:26:10;1.80;;;1.70;;
6739;SDS011;3407;49.882;10.920;2023-04-03T15:31:06;5.33;;;2.03;;
6739;SDS011;3407;49.882;10.920;2023-04-03T15:36:02;2.00;;;1.80;;
6739;SDS011;3407;49.882;10.920;2023-04-03T15:40:58;2.17;;;1.93;;
6739;SDS011;3407;49.882;10.920;2023-04-03T15:45:56;2.47;;;2.10;;
6739;SDS011;3407;49.882;10.920;2023-04-03T15:50:53;3.30;;;1.50;;
6739;SDS011;3407;49.882;10.920;2023-04-03T15:55:48;2.40;;;1.80;;
6739;SDS011;3407;49.882;10.920;2023-04-03T16:00:44;2.00;;;1.77;;
6739;SDS011;3407;49.882;10.920;2023-04-03T16:05:40;2.23;;;2.10;;
6739;SDS011;3407;49.882;10.920;2023-04-03T16:10:36;2.77;;;2.00;;
6739;SDS011;3407;49.882;10.920;2023-04-03T16:15:32;1.97;;;1.87;;
6739;SDS011;3407;49.882;10.920;2023-04-03T16:20:29;2.43;;;2.23;;
6739;SDS011;3407;49.882;10.920;2023-04-03T16:25:25;2.80;;;1.90;;
6739;SDS011;3407;49.882;10.920;2023-04-03T16:30:21;1.93;;;1.83;;
6739;SDS011;3407;49.882;10.920;2023-04-03T16:35:17;2.00;;;1.90;;
6739;SDS011;3407;49.882;10.920;2023-04-03T16:40:12;2.37;;;2.20;;
6739;SDS011;3407;49.882;10.920;2023-04-03T16:45:08;2.13;;;1.90;;
6739;SDS011;3407;49.882;10.920;2023-04-03T16:50:04;2.00;;;1.90;;
6739;SDS011;3407;49.882;10.920;2023-04-03T16:55:00;2.87;;;1.80;;
6739;SDS011;3407;49.882;10.920;2023-04-03T16:59:56;2.20;;;2.10;;
6739;SDS011;3407;49.882;10.920;2023-04-03T17:04:54;2.00;;;1.90;;
6739;SDS011;3407;49.882;10.920;2023-04-03T17:09:50;2.33;;;2.10;;
6739;SDS011;3407;49.882;10.920;2023-04-03T17:14:46;2.50;;;2.23;;
6739;SDS011;3407;49.882;10.920;2023-04-03T17:19:42;2.70;;;2.00;;
6739;SDS011;3407;49.882;10.920;2023-04-03T17:24:38;2.00;;;1.90;;
6739;SDS011;3407;49.882;10.920;2023-04-03T17:29:34;2.17;;;1.97;;
6739;SDS011;3407;49.882;10.920;2023-04-03T17:34:29;2.40;;;2.20;;
6739;SDS011;3407;49.882;10.920;2023-04-03T17:39:25;3.80;;;2.30;;
6739;SDS011;3407;49.882;10.920;2023-04-03T17:44:20;3.27;;;2.30;;
6739;SDS011;3407;49.882;10.920;2023-04-03T17:49:16;2.73;;;2.33;;
6739;SDS011;3407;49.882;10.920;2023-04-03T17:54:14;2.50;;;2.30;;
6739;SDS011;3407;49.882;10.920;2023-04-03T17:59:10;3.77;;;2.40;;
6739;SDS011;3407;49.882;10.920;2023-04-03T18:04:06;2.53;;;2.33;;
6739;SDS011;3407;49.882;10.920;2023-04-03T18:09:11;2.10;;;2.00;;
6739;SDS011;3407;49.882;10.920;2023-04-03T18:14:11;2.40;;;2.00;;
6739;SDS011;3407;49.882;10.920;2023-04-03T18:19:08;4.87;;;2.80;;
6739;SDS011;3407;49.882;10.920;2023-04-03T18:24:04;2.70;;;2.30;;
6739;SDS011;3407;49.882;10.920;2023-04-03T18:29:04;2.20;;;2.10;;
6739;SDS011;3407;49.882;10.920;2023-04-03T18:34:02;3.33;;;2.40;;
6739;SDS011;3407;49.882;10.920;2023-04-03T18:38:58;2.37;;;2.20;;
6739;SDS011;3407;49.882;10.920;2023-04-03T18:43:54;2.43;;;2.23;;
6739;SDS011;3407;49.882;10.920;2023-04-03T18:48:51;2.60;;;2.40;;
6739;SDS011;3407;49.882;10.920;2023-04-03T18:53:48;3.73;;;2.50;;
6739;SDS011;3407;49.882;10.920;2023-04-03T18:58:44;2.60;;;2.40;;
6739;SDS011;3407;49.882;10.920;2023-04-03T19:03:39;3.13;;;2.20;;
6739;SDS011;3407;49.882;10.920;2023-04-03T19:08:35;3.00;;;2.80;;
6739;SDS011;3407;49.882;10.920;2023-04-03T19:13:31;2.40;;;2.30;;
6739;SDS011;3407;49.882;10.920;2023-04-03T19:18:28;3.00;;;2.80;;
6739;SDS011;3407;49.882;10.920;2023-04-03T19:23:24;3.23;;;2.40;;
6739;SDS011;3407;49.882;10.920;2023-04-03T19:28:20;2.40;;;2.17;;
6739;SDS011;3407;49.882;10.920;2023-04-03T19:33:15;3.63;;;2.73;;
6739;SDS011;3407;49.882;10.920;2023-04-03T19:38:11;2.50;;;2.40;;
6739;SDS011;3407;49.882;10.920;2023-04-03T19:43:06;3.60;;;2.63;;
6739;SDS011;3407;49.882;10.920;2023-04-03T19:48:02;2.40;;;2.30;;
6739;SDS011;3407;49.882;10.920;2023-04-03T19:52:59;2.30;;;2.20;;
6739;SDS011;3407;49.882;10.920;2023-04-03T19:57:58;4.80;;;2.37;;
6739;SDS011;3407;49.882;10.920;2023-04-03T20:02:55;2.50;;;2.40;;
6739;SDS011;3407;49.882;10.920;2023-04-03T20:07:51;2.70;;;2.40;;
6739;SDS011;3407;49.882;10.920;2023-04-03T20:12:47;6.33;;;2.63;;
6739;SDS011;3407;49.882;10.920;2023-04-03T20:17:44;2.70;;;2.50;;
6739;SDS011;3407;49.882;10.920;2023-04-03T20:22:40;3.43;;;2.83;;
6739;SDS011;3407;49.882;10.920;2023-04-03T20:27:35;2.30;;;2.20;;
6739;SDS011;3407;49.882;10.920;2023-04-03T20:32:31;2.70;;;2.60;;
6739;SDS011;3407;49.882;10.920;2023-04-03T20:37:27;3.20;;;2.67;;
6739;SDS011;3407;49.882;10.920;2023-04-03T20:42:23;4.63;;;2.70;;
6739;SDS011;3407;49.882;10.920;2023-04-03T20:47:18;2.43;;;2.17;;
6739;SDS011;3407;49.882;10.920;2023-04-03T20:52:14;2.87;;;2.57;;
6739;SDS011;3407;49.882;10.920;2023-04-03T20:57:09;2.63;;;2.33;;
6739;SDS011;3407;49.882;10.920;2023-04-03T21:02:05;2.77;;;2.50;;
6739;SDS011;3407;49.882;10.920;2023-04-03T21:23:03;2.60;;;2.27;;
6739;SDS011;3407;49.882;10.920;2023-04-03T21:27:59;2.83;;;2.53;;
6739;SDS011;3407;49.882;10.920;2023-04-03T21:32:56;2.93;;;2.43;;
6739;SDS011;3407;49.882;10.920;2023-04-03T21:37:51;2.60;;;2.40;;
6739;SDS011;3407;49.882;10.920;2023-04-03T21:42:52;2.63;;;2.40;;
6739;SDS011;3407;49.882;10.920;2023-04-03T21:47:48;4.63;;;2.70;;
6739;SDS011;3407;49.882;10.920;2023-04-03T21:52:45;2.60;;;2.50;;
6739;SDS011;3407;49.882;10.920;2023-04-03T21:57:40;2.93;;;2.50;;
6739;SDS011;3407;49.882;10.920;2023-04-03T22:02:39;2.80;;;2.60;;
6739;SDS011;3407;49.882;10.920;2023-04-03T22:07:34;2.67;;;2.47;;
6739;SDS011;3407;49.882;10.920;2023-04-03T22:12:30;3.03;;;2.73;;
6739;SDS011;3407;49.882;10.920;2023-04-03T22:17:28;2.70;;;2.50;;
6739;SDS011;3407;49.882;10.920;2023-04-03T22:22:25;2.77;;;2.40;;
6739;SDS011;3407;49.882;10.920;2023-04-03T22:27:21;2.40;;;2.20;;
6739;SDS011;3407;49.882;10.920;2023-04-03T22:32:16;2.60;;;2.40;;
6739;SDS011;3407;49.882;10.920;2023-04-03T22:37:12;3.10;;;2.90;;
6739;SDS011;3407;49.882;10.920;2023-04-03T22:42:07;2.73;;;2.50;;
6739;SDS011;3407;49.882;10.920;2023-04-03T22:47:03;3.17;;;2.90;;
6739;SDS011;3407;49.882;10.920;2023-04-03T22:51:58;2.70;;;2.50;;
6739;SDS011;3407;49.882;10.920;2023-04-03T22:56:54;3.30;;;2.70;;
6739;SDS011;3407;49.882;10.920;2023-04-03T23:01:49;2.73;;;2.53;;
6739;SDS011;3407;49.882;10.920;2023-04-03T23:06:45;2.80;;;2.60;;
6739;SDS011;3407;49.882;10.920;2023-04-03T23:11:41;2.70;;;2.50;;
6739;SDS011;3407;49.882;10.920;2023-04-03T23:16:37;2.97;;;2.80;;
6739;SDS011;3407;49.882;10.920;2023-04-03T23:21:33;3.73;;;2.63;;
6739;SDS011;3407;49.882;10.920;2023-04-03T23:26:28;2.50;;;2.40;;
6739;SDS011;3407;49.882;10.920;2023-04-03T23:31:24;2.57;;;2.47;;
6739;SDS011;3407;49.882;10.920;2023-04-03T23:36:19;3.33;;;2.40;;
6739;SDS011;3407;49.882;10.920;2023-04-03T23:41:15;2.60;;;2.50;;
6739;SDS011;3407;49.882;10.920;2023-04-03T23:46:11;2.63;;;2.53;;
6739;SDS011;3407;49.882;10.920;2023-04-03T23:51:06;2.60;;;2.50;;
6739;SDS011;3407;49.882;10.920;2023-04-03T23:56:02;2.50;;;2.40;;
